Terminal Aerodrome Forecast
Issued by NWS Green Bay, WI

Home | Current Version | Previous Version | Graphics & Text | Print | Product List | Glossary On
Versions: 1 2 3 4 5 6 7 8 9 10 11 12 13 14 15 16 17 18 19 20 21 22 23 24 25 26 27 28 29 30 31 32 33 34 35
668
FTUS43 KGRB 162025 AAB
TAFGRB
TAF AMD
KGRB 162025Z 1620/1718 33006KT P6SM SCT025 SCT050
      TEMPO 1620/1623 -SN BKN025
     FM162300 30004KT P6SM SCT030 SCT080
     FM170100 29005KT P6SM SCT090
     FM170800 26008KT P6SM BKN140
     FM171400 24012KT P6SM BKN200
     FM171700 25016G28KT P6SM SCT200=

USA.gov is the U.S. government's official web portal to all federal, state and local government web resources and services.